createdAt,value
2023-04-02T00:01:44.096Z,94722.53
2023-04-02T00:04:30.140Z,94723.72
2023-04-02T00:07:31.008Z,94723.63
2023-04-02T00:10:37.912Z,94726.78
2023-04-02T00:13:44.773Z,94722.50
2023-04-02T00:16:32.953Z,94732.75
2023-04-02T00:19:25.878Z,94726.69
2023-04-02T00:22:17.458Z,94722.22
2023-04-02T00:25:11.363Z,94715.84
2023-04-02T00:27:57.393Z,94714.56
2023-04-02T00:30:51.078Z,94711.59
2023-04-02T00:33:37.967Z,94703.84
2023-04-02T00:36:26.645Z,94720.13
2023-04-02T00:39:42.436Z,94719.13
2023-04-02T00:42:31.197Z,94714.56
2023-04-02T00:45:24.660Z,94709.00
2023-04-02T00:48:45.698Z,94706.63
2023-04-02T00:52:13.732Z,94718.16
2023-04-02T00:55:13.858Z,94719.25
2023-04-02T00:58:00.816Z,94720.34
2023-04-02T01:00:50.683Z,94724.69
2023-04-02T01:03:37.852Z,94733.81
2023-04-02T01:06:34.310Z,94731.84
2023-04-02T01:09:46.166Z,94732.81
2023-04-02T01:12:56.015Z,94731.00
2023-04-02T01:15:48.236Z,94724.66
2023-04-02T01:19:21.669Z,94730.91
2023-04-02T01:22:10.457Z,94730.91
2023-04-02T01:25:00.650Z,94725.63
2023-04-02T01:28:15.350Z,94732.38
2023-04-02T01:31:03.518Z,94733.53
2023-04-02T01:33:50.387Z,94732.13
2023-04-02T01:36:52.732Z,94730.78
2023-04-02T01:40:19.045Z,94728.69
2023-04-02T01:43:12.292Z,94726.31
2023-04-02T01:46:01.859Z,94727.69
2023-04-02T01:48:49.200Z,94731.44
2023-04-02T01:51:41.275Z,94730.97
2023-04-02T01:54:29.075Z,94724.06
2023-04-02T01:57:16.783Z,94729.25
2023-04-02T02:00:10.291Z,94726.06
2023-04-02T02:03:01.036Z,94724.47
2023-04-02T02:05:48.188Z,94716.13
2023-04-02T02:08:55.313Z,94716.72
2023-04-02T02:11:42.070Z,94716.72
2023-04-02T02:14:30.681Z,94718.31
2023-04-02T02:17:24.293Z,94718.59
2023-04-02T02:20:11.430Z,94720.47
2023-04-02T02:22:58.260Z,94719.44
2023-04-02T02:25:45.437Z,94718.66
2023-04-02T02:28:36.671Z,94720.06
2023-04-02T02:31:28.222Z,94717.38
2023-04-02T02:34:20.137Z,94717.94
2023-04-02T02:37:23.372Z,94712.19
2023-04-02T02:40:24.721Z,94713.16
2023-04-02T02:43:13.525Z,94709.50
2023-04-02T02:46:00.015Z,94707.91
2023-04-02T02:48:46.871Z,94710.06
2023-04-02T02:51:49.234Z,94714.41
2023-04-02T02:54:43.052Z,94716.53
2023-04-02T02:57:32.725Z,94729.72
2023-04-02T03:00:19.907Z,94725.22
2023-04-02T03:03:14.001Z,94732.72
2023-04-02T03:06:03.513Z,94728.47
2023-04-02T03:09:12.339Z,94733.91
2023-04-02T03:12:10.427Z,94729.91
2023-04-02T03:15:08.579Z,94743.81
2023-04-02T03:18:14.404Z,94746.19
2023-04-02T03:21:20.756Z,94751.56
2023-04-02T03:24:22.829Z,94752.13
2023-04-02T03:27:23.084Z,94747.28
2023-04-02T03:30:28.884Z,94758.50
2023-04-02T03:33:33.213Z,94759.28
2023-04-02T03:36:21.253Z,94752.53
2023-04-02T03:39:32.473Z,94751.25
2023-04-02T03:42:26.379Z,94766.25
2023-04-02T03:45:27.425Z,94758.50
2023-04-02T03:48:40.682Z,94768.16
2023-04-02T03:51:53.470Z,94764.53
2023-04-02T03:54:41.046Z,94770.31
2023-04-02T03:58:07.763Z,94768.28
2023-04-02T04:00:56.802Z,94764.31
2023-04-02T04:03:47.433Z,94772.41
2023-04-02T04:06:34.934Z,94763.63
2023-04-02T04:09:27.492Z,94768.47
2023-04-02T04:12:26.923Z,94773.34
2023-04-02T04:15:25.759Z,94778.16
2023-04-02T04:18:21.676Z,94779.25
2023-04-02T04:21:30.035Z,94774.72
2023-04-02T04:24:25.203Z,94784.34
2023-04-02T04:27:25.018Z,94781.97
2023-04-02T04:30:51.389Z,94784.63
2023-04-02T04:33:42.813Z,94787.53
2023-04-02T04:36:48.059Z,94785.38
2023-04-02T04:39:48.977Z,94784.59
2023-04-02T04:42:38.659Z,94776.41
2023-04-02T04:45:36.759Z,94779.34
2023-04-02T04:48:40.044Z,94785.25
2023-04-02T04:57:09.602Z,94792.75
2023-04-02T05:00:01.377Z,94788.47
2023-04-02T05:02:52.377Z,94791.06
2023-04-02T05:07:00.590Z,94792.94
2023-04-02T05:10:15.769Z,94797.22
2023-04-02T05:17:28.603Z,94785.38
2023-04-02T05:21:18.516Z,94794.22
2023-04-02T05:24:29.186Z,94797.88
2023-04-02T05:27:31.510Z,94797.56
2023-04-02T05:30:24.571Z,94798.28
2023-04-02T05:33:37.785Z,94805.75
2023-04-02T05:36:29.310Z,94802.22
2023-04-02T05:39:24.132Z,94807.47
2023-04-02T05:42:23.997Z,94817.22
2023-04-02T05:45:37.612Z,94813.38
2023-04-02T05:48:35.153Z,94812.69
2023-04-02T05:51:29.159Z,94803.19
2023-04-02T05:54:39.155Z,94803.84
2023-04-02T05:57:44.584Z,94807.69
2023-04-02T06:00:36.531Z,94816.34
2023-04-02T06:03:41.105Z,94826.41
2023-04-02T06:07:08.152Z,94823.06
2023-04-02T06:10:05.117Z,94816.56
2023-04-02T06:13:00.959Z,94821.25
2023-04-02T06:15:48.287Z,94818.97
2023-04-02T06:18:40.615Z,94824.16
2023-04-02T06:21:26.246Z,94830.38
2023-04-02T06:24:17.432Z,94823.75
2023-04-02T06:27:07.197Z,94822.69
2023-04-02T06:29:57.405Z,94822.19
2023-04-02T06:32:44.818Z,94825.78
2023-04-02T06:35:42.621Z,94829.84
2023-04-02T06:38:31.604Z,94835.03
2023-04-02T06:41:24.032Z,94838.59
2023-04-02T06:44:28.346Z,94833.94
2023-04-02T06:47:34.049Z,94837.22
2023-04-02T06:50:33.475Z,94835.41
2023-04-02T06:53:31.478Z,94835.78
2023-04-02T06:56:46.861Z,94835.88
2023-04-02T06:59:38.481Z,94844.84
2023-04-02T07:02:36.004Z,94854.88
2023-04-02T07:05:24.017Z,94850.66
2023-04-02T07:08:10.433Z,94854.84
2023-04-02T07:10:56.898Z,94851.44
2023-04-02T07:13:44.090Z,94849.59
2023-04-02T07:16:33.268Z,94853.00
2023-04-02T07:19:22.286Z,94859.53
2023-04-02T07:22:12.680Z,94861.47
2023-04-02T07:25:01.169Z,94859.97
2023-04-02T07:27:47.384Z,94870.47
2023-04-02T07:30:33.121Z,94868.34
2023-04-02T07:33:25.301Z,94870.28
2023-04-02T07:36:24.293Z,94874.00
2023-04-02T07:39:11.098Z,94872.34
2023-04-02T07:41:59.453Z,94877.44
2023-04-02T07:44:45.339Z,94876.81
2023-04-02T07:47:32.008Z,94886.38
2023-04-02T07:50:18.061Z,94891.59
2023-04-02T07:53:04.311Z,94890.69
2023-04-02T07:55:53.032Z,94898.31
2023-04-02T07:58:38.779Z,94892.19
2023-04-02T08:01:26.517Z,94901.69
2023-04-02T08:04:23.005Z,94890.63
2023-04-02T08:07:09.148Z,94902.03
2023-04-02T08:09:55.097Z,94901.44
2023-04-02T08:12:40.713Z,94900.84
2023-04-02T08:15:26.371Z,94909.41
2023-04-02T08:18:12.433Z,94901.63
2023-04-02T08:20:58.732Z,94909.41
2023-04-02T08:23:44.975Z,94903.38
2023-04-02T08:26:31.307Z,94906.13
2023-04-02T08:29:17.180Z,94895.34
2023-04-02T08:32:03.299Z,94905.22
2023-04-02T08:34:49.217Z,94902.69
2023-04-02T08:37:34.990Z,94914.44
2023-04-02T08:40:33.842Z,94903.38
2023-04-02T08:43:42.106Z,94900.50
2023-04-02T08:46:46.333Z,94894.59
2023-04-02T08:49:58.297Z,94894.94
2023-04-02T08:52:44.195Z,94894.63
2023-04-02T09:00:13.680Z,94887.94
2023-04-02T09:04:12.782Z,94888.53
2023-04-02T09:07:00.096Z,94889.19
2023-04-02T09:09:50.083Z,94891.56
2023-04-02T09:13:48.591Z,94895.66
2023-04-02T09:17:16.569Z,94892.50
2023-04-02T09:20:21.411Z,94892.34
2023-04-02T09:28:04.986Z,94879.06
2023-04-02T09:31:35.146Z,94885.50
2023-04-02T09:39:27.556Z,94872.28
2023-04-02T09:42:46.676Z,94875.53
2023-04-02T09:45:32.962Z,94872.59
2023-04-02T09:48:23.454Z,94870.06
2023-04-02T09:51:44.131Z,94860.56
2023-04-02T09:54:29.753Z,94852.44
2023-04-02T09:57:27.409Z,94847.31
2023-04-02T10:00:32.547Z,94849.63
2023-04-02T10:03:27.295Z,94842.66
2023-04-02T10:06:15.082Z,94840.19
2023-04-02T10:09:22.248Z,94844.50
2023-04-02T10:12:21.176Z,94844.53
2023-04-02T10:15:07.867Z,94836.81
2023-04-02T10:18:08.357Z,94827.97
2023-04-02T10:20:57.506Z,94821.81
2023-04-02T10:23:43.756Z,94821.00
2023-04-02T10:26:38.597Z,94821.81
2023-04-02T10:29:42.889Z,94820.97
2023-04-02T10:32:42.092Z,94806.69
2023-04-02T10:35:40.121Z,94808.63
2023-04-02T10:38:45.459Z,94810.63
2023-04-02T10:41:53.545Z,94807.59
2023-04-02T10:44:43.650Z,94803.72
2023-04-02T10:47:50.948Z,94801.75
2023-04-02T10:51:20.660Z,94808.06
2023-04-02T10:54:39.916Z,94805.03
2023-04-02T10:57:41.273Z,94800.56
2023-04-02T11:01:16.950Z,94801.75
2023-04-02T11:04:51.239Z,94809.22
2023-04-02T11:08:05.099Z,94793.16
2023-04-02T11:10:57.720Z,94786.38
2023-04-02T11:14:05.167Z,94796.50
2023-04-02T11:16:52.689Z,94792.56
2023-04-02T11:20:43.426Z,94788.25
2023-04-02T11:23:36.805Z,94794.78
2023-04-02T11:26:53.753Z,94784.78
2023-04-02T11:34:01.027Z,94788.41
2023-04-02T11:36:55.798Z,94788.72
2023-04-02T11:39:56.944Z,94790.97
2023-04-02T11:42:49.822Z,94789.25
2023-04-02T11:45:54.877Z,94778.25
2023-04-02T11:48:41.000Z,94778.72
2023-04-02T11:51:32.975Z,94783.56
2023-04-02T11:54:38.417Z,94776.72
2023-04-02T11:58:03.071Z,94769.38
2023-04-02T12:01:16.886Z,94767.09
2023-04-02T12:12:39.889Z,94750.38
2023-04-02T12:15:44.750Z,94750.28
2023-04-02T12:18:33.181Z,94754.91
2023-04-02T12:21:21.038Z,94751.28
2023-04-02T12:24:19.422Z,94748.50
2023-04-02T12:27:42.518Z,94746.44
2023-04-02T12:30:28.654Z,94748.34
2023-04-02T12:37:03.748Z,94743.25
2023-04-02T12:40:04.688Z,94736.75
2023-04-02T12:42:50.673Z,94726.84
2023-04-02T12:46:03.721Z,94733.94
2023-04-02T12:49:23.788Z,94729.66
2023-04-02T12:52:12.385Z,94727.75
2023-04-02T12:55:03.096Z,94715.88
2023-04-02T12:57:50.198Z,94717.31
2023-04-02T13:00:36.784Z,94727.84
2023-04-02T13:03:23.207Z,94726.84
2023-04-02T13:06:23.411Z,94732.16
2023-04-02T13:09:35.838Z,94730.44
2023-04-02T13:12:38.742Z,94726.28
2023-04-02T13:15:37.236Z,94732.44
2023-04-02T13:18:23.528Z,94729.03
2023-04-02T13:21:28.339Z,94733.50
2023-04-02T13:24:20.629Z,94737.22
2023-04-02T13:27:06.655Z,94747.63
2023-04-02T13:29:52.642Z,94748.59
2023-04-02T13:32:39.321Z,94743.78
2023-04-02T13:35:26.740Z,94748.34
2023-04-02T13:38:15.122Z,94746.53
2023-04-02T13:41:00.921Z,94745.56
2023-04-02T13:43:47.028Z,94741.66
2023-04-02T13:46:34.777Z,94750.22
2023-04-02T13:49:21.552Z,94742.88
2023-04-02T13:52:11.410Z,94740.88
2023-04-02T13:55:00.703Z,94727.13
2023-04-02T13:57:46.585Z,94717.25
2023-04-02T14:00:32.643Z,94729.22
2023-04-02T14:03:22.432Z,94722.31
2023-04-02T14:06:52.489Z,94713.72
2023-04-02T14:10:07.702Z,94712.63
2023-04-02T14:13:18.434Z,94723.88
2023-04-02T14:16:16.503Z,94704.06
2023-04-02T14:19:26.091Z,94717.16
2023-04-02T14:22:46.292Z,94707.97
2023-04-02T14:25:41.253Z,94717.03
2023-04-02T14:28:49.804Z,94706.34
2023-04-02T14:32:09.805Z,94706.34
2023-04-02T14:35:07.676Z,94693.13
2023-04-02T14:38:15.548Z,94692.88
2023-04-02T14:41:24.948Z,94687.25
2023-04-02T14:44:12.348Z,94687.78
2023-04-02T14:47:23.346Z,94673.63
2023-04-02T14:50:28.080Z,94684.28
2023-04-02T14:53:51.737Z,94686.78
2023-04-02T14:57:16.986Z,94675.16
2023-04-02T15:00:24.406Z,94687.50
2023-04-02T15:03:26.011Z,94686.81
2023-04-02T15:06:19.035Z,94675.81
2023-04-02T15:09:27.673Z,94675.22
2023-04-02T15:12:24.047Z,94693.06
2023-04-02T15:15:40.819Z,94684.66
2023-04-02T15:18:27.464Z,94687.75
2023-04-02T15:21:19.462Z,94683.03
2023-04-02T15:24:11.509Z,94673.41
2023-04-02T15:27:35.034Z,94681.78
2023-04-02T15:30:28.041Z,94666.50
2023-04-02T15:33:38.900Z,94673.63
2023-04-02T15:36:41.566Z,94679.13
2023-04-02T15:39:36.854Z,94681.47
2023-04-02T15:42:29.550Z,94685.38
2023-04-02T15:45:22.871Z,94699.47
2023-04-02T15:48:24.334Z,94675.94
2023-04-02T15:51:26.488Z,94676.75
2023-04-02T15:54:29.952Z,94682.25
2023-04-02T15:57:29.454Z,94686.94
2023-04-02T16:00:32.723Z,94686.16
2023-04-02T16:03:18.609Z,94692.03
2023-04-02T16:06:26.654Z,94704.97
2023-04-02T16:09:23.318Z,94697.06
2023-04-02T16:12:16.187Z,94704.28
2023-04-02T16:15:15.601Z,94702.88
2023-04-02T16:18:26.871Z,94704.84
2023-04-02T16:21:16.004Z,94720.44
2023-04-02T16:24:01.913Z,94707.94
2023-04-02T16:27:16.333Z,94716.00
2023-04-02T16:30:35.814Z,94713.88
2023-04-02T16:33:35.633Z,94718.88
2023-04-02T16:36:43.065Z,94709.06
2023-04-02T16:39:57.164Z,94715.69
2023-04-02T16:43:15.885Z,94733.16
2023-04-02T16:46:22.541Z,94727.75
2023-04-02T16:49:36.913Z,94735.50
2023-04-02T16:52:47.716Z,94727.69
2023-04-02T16:56:08.050Z,94733.00
2023-04-02T16:59:09.369Z,94738.47
2023-04-02T17:02:36.072Z,94741.91
2023-04-02T17:05:28.495Z,94731.88
2023-04-02T17:08:24.713Z,94737.75
2023-04-02T17:11:26.109Z,94724.13
2023-04-02T17:14:24.338Z,94721.47
2023-04-02T17:17:12.337Z,94728.31
2023-04-02T17:20:00.742Z,94725.84
2023-04-02T17:22:47.595Z,94734.72
2023-04-02T17:25:37.175Z,94734.16
2023-04-02T17:28:29.264Z,94737.84
2023-04-02T17:31:25.592Z,94746.34
2023-04-02T17:34:14.002Z,94753.06
2023-04-02T17:37:07.052Z,94754.69
2023-04-02T17:40:04.273Z,94752.47
2023-04-02T17:43:02.803Z,94750.78
2023-04-02T17:45:51.912Z,94756.56
2023-04-02T17:48:47.970Z,94761.53
2023-04-02T17:51:45.618Z,94773.78
2023-04-02T17:54:59.604Z,94775.97
2023-04-02T17:58:22.920Z,94781.16
2023-04-02T18:01:18.976Z,94781.84
2023-04-02T18:04:26.448Z,94790.91
2023-04-02T18:07:12.413Z,94793.88
2023-04-02T18:10:16.146Z,94797.69
2023-04-02T18:13:28.036Z,94806.31
2023-04-02T18:16:27.252Z,94806.63
2023-04-02T18:19:21.449Z,94809.66
2023-04-02T18:22:33.632Z,94802.66
2023-04-02T18:25:50.204Z,94806.03
2023-04-02T18:28:41.933Z,94810.41
2023-04-02T18:31:52.674Z,94817.97
2023-04-02T18:35:13.162Z,94820.13
2023-04-02T18:38:21.970Z,94827.66
2023-04-02T18:41:19.756Z,94825.28
2023-04-02T18:44:33.504Z,94834.53
2023-04-02T18:47:35.481Z,94840.63
2023-04-02T18:50:28.101Z,94845.34
2023-04-02T18:53:19.422Z,94849.97
2023-04-02T18:56:11.453Z,94849.19
2023-04-02T18:59:13.449Z,94856.09
2023-04-02T19:02:01.443Z,94857.66
2023-04-02T19:04:58.596Z,94861.38
2023-04-02T19:07:46.664Z,94863.75
2023-04-02T19:10:38.577Z,94871.41
2023-04-02T19:13:24.545Z,94862.34
2023-04-02T19:16:19.617Z,94873.19
2023-04-02T19:19:21.889Z,94879.94
2023-04-02T19:22:50.760Z,94885.09
2023-04-02T19:25:49.633Z,94880.31
2023-04-02T19:29:19.624Z,94891.34
2023-04-02T19:32:27.720Z,94888.16
2023-04-02T19:35:22.664Z,94906.78
2023-04-02T19:38:29.600Z,94903.50
2023-04-02T19:41:51.545Z,94906.22
2023-04-02T19:44:43.261Z,94901.66
2023-04-02T19:47:29.656Z,94914.03
2023-04-02T19:50:34.259Z,94911.53
2023-04-02T19:53:20.410Z,94920.78
2023-04-02T19:56:06.486Z,94916.34
2023-04-02T19:58:52.608Z,94936.75
2023-04-02T20:01:39.108Z,94931.53
2023-04-02T20:04:25.635Z,94931.06
2023-04-02T20:07:12.565Z,94934.75
2023-04-02T20:09:58.751Z,94930.50
2023-04-02T20:12:47.912Z,94948.97
2023-04-02T20:16:14.557Z,94949.47
2023-04-02T20:19:18.972Z,94948.41
2023-04-02T20:22:49.489Z,94949.56
2023-04-02T20:25:35.666Z,94932.69
2023-04-02T20:28:22.471Z,94945.31
2023-04-02T20:31:50.282Z,94943.28
2023-04-02T20:34:36.867Z,94942.97
2023-04-02T20:37:22.982Z,94947.13
2023-04-02T20:40:10.177Z,94950.31
2023-04-02T20:43:19.123Z,94957.47
2023-04-02T20:46:08.343Z,94948.44
2023-04-02T20:48:57.266Z,94942.06
2023-04-02T20:51:43.297Z,94944.59
2023-04-02T20:54:28.926Z,94942.25
2023-04-02T20:57:14.496Z,94937.16
2023-04-02T21:00:02.613Z,94931.59
2023-04-02T21:03:21.237Z,94943.22
2023-04-02T21:06:18.762Z,94938.44
2023-04-02T21:10:14.250Z,94937.03
2023-04-02T21:13:00.182Z,94938.75
2023-04-02T21:15:45.872Z,94935.59
2023-04-02T21:19:08.394Z,94938.78
2023-04-02T21:21:54.823Z,94941.16
2023-04-02T21:24:40.630Z,94951.31
2023-04-02T21:27:26.473Z,94960.53
2023-04-02T21:30:12.704Z,94964.19
2023-04-02T21:32:58.815Z,94960.03
2023-04-02T21:35:44.660Z,94959.09
2023-04-02T21:38:32.582Z,94959.25
2023-04-02T21:41:22.348Z,94959.38
2023-04-02T21:44:10.617Z,94951.78
2023-04-02T21:46:56.507Z,94954.28
2023-04-02T21:49:42.909Z,94946.84
2023-04-02T21:52:28.830Z,94945.88
2023-04-02T21:55:14.594Z,94947.59
2023-04-02T21:58:00.374Z,94939.69
2023-04-02T22:00:46.253Z,94927.91
2023-04-02T22:03:33.939Z,94939.50
2023-04-02T22:06:21.124Z,94937.13
2023-04-02T22:09:10.016Z,94936.50
2023-04-02T22:12:01.564Z,94930.47
2023-04-02T22:14:47.392Z,94942.22
2023-04-02T22:17:33.260Z,94934.13
2023-04-02T22:20:18.914Z,94927.63
2023-04-02T22:23:16.545Z,94929.22
2023-04-02T22:26:10.740Z,94926.50
2023-04-02T22:29:31.624Z,94929.22
2023-04-02T22:32:29.943Z,94929.69
2023-04-02T22:35:22.263Z,94933.19
2023-04-02T22:38:09.182Z,94931.59
2023-04-02T22:41:08.744Z,94925.56
2023-04-02T22:43:59.052Z,94929.53
2023-04-02T22:46:45.035Z,94923.50
2023-04-02T22:49:30.723Z,94928.88
2023-04-02T22:52:19.488Z,94933.31
2023-04-02T22:55:08.065Z,94928.22
2023-04-02T22:57:54.133Z,94932.38
2023-04-02T23:00:40.049Z,94929.19
2023-04-02T23:03:25.943Z,94926.19
2023-04-02T23:06:17.399Z,94933.78
2023-04-02T23:09:04.244Z,94929.31
2023-04-02T23:11:50.093Z,94931.41
2023-04-02T23:14:39.910Z,94939.00
2023-04-02T23:17:25.582Z,94935.03
2023-04-02T23:20:29.622Z,94941.53
2023-04-02T23:23:18.818Z,94940.91
2023-04-02T23:26:12.776Z,94937.09
2023-04-02T23:28:59.749Z,94938.50
2023-04-02T23:32:17.002Z,94936.75
2023-04-02T23:44:16.751Z,94940.22
2023-04-02T23:47:02.406Z,94939.09
2023-04-02T23:50:56.441Z,94944.50
2023-04-02T23:53:43.470Z,94939.59
2023-04-02T23:56:29.676Z,94940.56
2023-04-02T23:59:15.617Z,94936.75
